As Suwayq — V7XU8 — position and weather

sailwx.info

Track history (hours):
 
Tides and Currents Weather Stations Pressure Air Temp Water Temp Dewpoint Dewpoint Depression Visibility Wind Speed Wind Dir Waves Ship Positions

As Suwayq

Last reported at 2017-Aug-04 06:55 UTC. Time now 2017-Aug-20 08:05 UTC.
Position S 30°35' E 031°33'.
Warning: this ship's position is 16 days out of date.

Length 333 m; draft 22 m.

Type: Tanker. MMSI: 538004576.

Date/timePositionNaut miles runAvg speedWind from/ knotsBaromVisibWave heightAir tempDewpointWater temp
2017-Aug-04 06:55S 30°35' E 031°33'512.8
2017-Aug-04 06:30S 30°31' E 031°37'612.6
2017-Aug-04 05:59S 30°26' E 031°41'613.1
2017-Aug-04 05:30S 30°21' E 031°46'612.8
2017-Aug-04 05:00S 30°16' E 031°50'713.1
2017-Aug-04 04:30S 30°10' E 031°55'713.5
2017-Aug-04 04:00S 30°05' E 031°59'713.8
2017-Aug-04 03:30S 29°59' E 032°04'713.6
2017-Aug-04 03:00S 29°54' E 032°09'713.6
2017-Aug-04 02:30S 29°48' E 032°13'813.7
2017-Aug-04 01:57S 29°43' E 032°19'713.8
2017-Aug-04 01:27S 29°37' E 032°24'713.7
2017-Aug-04 00:56S 29°32' E 032°29'813.9
2017-Aug-04 00:24S 29°26' E 032°34'614.0
2017-Aug-04 00:00S 29°21' E 032°38'1614.2
2017-Aug-03 22:52S 29°09' E 032°50'  
Track history (hours):
 
Tides and Currents Weather Stations Pressure Air Temp Water Temp Dewpoint Dewpoint Depression Visibility Wind Speed Wind Dir Waves Ship Positions

As Suwayq

Last reported at 2017-Aug-04 06:55 UTC. Time now 2017-Aug-20 08:05 UTC.
Position S 30°35' E 031°33'.
Warning: this ship's position is 16 days out of date.

Length 333 m; draft 22 m.

Type: Tanker. MMSI: 538004576.

Date/timePositionNaut miles runAvg speedWind from/ knotsBaromVisibWave heightAir tempDewpointWater temp
2017-Aug-04 06:55S 30°35' E 031°33'512.8
2017-Aug-04 06:30S 30°31' E 031°37'612.6
2017-Aug-04 05:59S 30°26' E 031°41'613.1
2017-Aug-04 05:30S 30°21' E 031°46'612.8
2017-Aug-04 05:00S 30°16' E 031°50'713.1
2017-Aug-04 04:30S 30°10' E 031°55'713.5
2017-Aug-04 04:00S 30°05' E 031°59'713.8
2017-Aug-04 03:30S 29°59' E 032°04'713.6
2017-Aug-04 03:00S 29°54' E 032°09'713.6
2017-Aug-04 02:30S 29°48' E 032°13'813.7
2017-Aug-04 01:57S 29°43' E 032°19'713.8
2017-Aug-04 01:27S 29°37' E 032°24'713.7
2017-Aug-04 00:56S 29°32' E 032°29'813.9
2017-Aug-04 00:24S 29°26' E 032°34'614.0
2017-Aug-04 00:00S 29°21' E 032°38'1614.2
2017-Aug-03 22:52S 29°09' E 032°50'  

Dump ship's entire track history